OMDB METAR and TAF | Updated Today

OMDB METAR

Dubai International Airport

Observation time: 35 min. ago

OMDB 060700Z VRB02KT 9999 FEW045 26/15 Q1019 BECMG 28010KT

Need help? Read our tutorial on how to read METARs or read the parsed version below.

Dubai International Airport (OMDB) METAR

  • Weather conditions on Mon, 06 Dec 2021 07:00:00 +0000 (35 min. ago):
  • Present conditions: Dry
  • Clouds: A few at 1372 meters
  • Visibility: Greater than 10 km
  • Wind: Variable at 2 knots
  • Temperature: 26 celsius
  • Dew point: 15 celsius
  • Pressure: 1019 millibars
  • Remarks: None


Useful to know...

OMDB TAF

Dubai International Airport

TAF OMDB 060500Z 0606/0712 22005KT 8000 SCT040 BECMG 0607/0609 28010KT BECMG 0616/0618 19005KT BECMG 0708/0710 32010KT
Observation time: 2:35 hr. ago
Need help? Read our tutorial on how to read TAFs or read the parsed version below.

Parsed version of TAF for Dubai International Airport (OMDB)

  • From 06 December at 06:00 UTC, to day 07 of the month at 12:00 UTC
  • Clouds: Scattered at 1219 meters
  • Visibility: 8000 meters
  • Wind: 220 degrees at 5
  • Expected to arise soon, from 06 December at 07:00 UTC, to day 06 of the month at 09:00 UTC
  • Wind: 280 degrees at 10
  • Expected to arise soon, from 06 December at 16:00 UTC, to day 06 of the month at 18:00 UTC
  • Wind: 190 degrees at 5
  • Expected to arise soon, from 07 December at 08:00 UTC, to day 07 of the month at 10:00 UTC
  • Wind: 320 degrees at 10